Time;durP1;ratioP1;P1;durP2;ratioP2;P2;SDS_P1;SDS_P2;PMS_P1;PMS_P2;Temp;Humidity;BMP_temperature;BMP_pressure;BME280_temperature;BME280_humidity;BME280_pressure;Samples;Min_cycle;Max_cycle;Signal;HPM_P1;HPM_P2
2024/01/15 00:00:57;;;;;;;18.92;14.57;;;1.30;99.90;;;;;;5056634;28;20443;-65
2024/01/15 00:03:25;;;;;;;20.50;14.95;;;1.20;99.90;;;;;;5055024;28;20433;-64
2024/01/15 00:05:52;;;;;;;19.10;15.60;;;1.20;99.90;;;;;;5053272;28;20803;-64
2024/01/15 00:08:18;;;;;;;22.33;15.55;;;1.20;99.90;;;;;;5051630;28;20493;-64
2024/01/15 00:10:45;;;;;;;21.25;16.48;;;1.10;99.90;;;;;;5047217;28;20449;-64
2024/01/15 00:13:12;;;;;;;23.87;17.40;;;1.10;99.90;;;;;;5057356;28;20433;-64
2024/01/15 00:15:38;;;;;;;26.10;18.48;;;1.00;99.90;;;;;;5051245;28;20441;-64
2024/01/15 00:18:06;;;;;;;23.30;16.88;;;1.00;99.90;;;;;;5049117;28;20434;-64
2024/01/15 00:20:34;;;;;;;25.58;17.35;;;1.00;99.90;;;;;;5048810;28;20889;-64
2024/01/15 00:23:00;;;;;;;25.02;18.15;;;1.00;99.90;;;;;;5060492;28;21102;-63
2024/01/15 00:25:27;;;;;;;23.33;16.40;;;1.00;99.90;;;;;;5053664;28;20429;-64
2024/01/15 00:27:54;;;;;;;24.13;15.57;;;1.00;99.90;;;;;;5055329;28;20879;-64
2024/01/15 00:30:21;;;;;;;26.92;16.90;;;1.00;99.90;;;;;;5066513;23;20396;-72
2024/01/15 00:32:47;;;;;;;27.27;17.50;;;0.90;99.90;;;;;;5022625;28;20442;-72
2024/01/15 00:35:14;;;;;;;29.20;17.65;;;0.80;99.90;;;;;;5026305;28;20466;-72
2024/01/15 00:37:42;;;;;;;28.00;19.00;;;0.80;99.90;;;;;;5028525;28;20435;-72
2024/01/15 00:40:10;;;;;;;26.40;18.38;;;0.70;99.90;;;;;;5025519;28;20439;-72
2024/01/15 00:42:36;;;;;;;30.20;19.87;;;0.70;99.90;;;;;;5033331;28;20442;-72
2024/01/15 00:45:05;;;;;;;31.15;20.17;;;0.70;99.90;;;;;;5035495;28;20437;-72
2024/01/15 00:47:32;;;;;;;32.38;20.33;;;0.70;99.90;;;;;;5027793;28;20927;-72
2024/01/15 00:49:58;;;;;;;30.38;19.50;;;0.70;99.90;;;;;;5026691;28;20440;-72
2024/01/15 00:52:25;;;;;;;32.70;20.23;;;0.70;99.90;;;;;;5027342;28;20431;-72
2024/01/15 00:54:53;;;;;;;35.42;20.70;;;0.70;99.90;;;;;;5027403;28;20805;-72
2024/01/15 00:57:20;;;;;;;35.10;21.00;;;0.70;99.90;;;;;;5026767;28;20430;-72
2024/01/15 00:59:48;;;;;;;29.58;20.63;;;0.70;99.90;;;;;;5035010;28;20434;-71
2024/01/15 01:02:14;;;;;;;33.08;21.15;;;0.60;99.90;;;;;;5029415;28;20518;-71
2024/01/15 01:04:41;;;;;;;32.03;20.58;;;0.70;99.90;;;;;;5026677;28;20446;-71
2024/01/15 01:07:08;;;;;;;34.95;19.50;;;0.70;99.90;;;;;;5027419;28;20435;-72
2024/01/15 01:09:35;;;;;;;31.58;21.30;;;0.70;99.90;;;;;;5026582;28;20787;-71
2024/01/15 01:12:03;;;;;;;29.25;20.33;;;0.70;99.90;;;;;;5025855;28;20442;-70
2024/01/15 01:14:30;;;;;;;32.88;20.73;;;0.70;99.90;;;;;;5027854;28;20793;-72
2024/01/15 01:16:57;;;;;;;29.98;21.00;;;0.70;99.90;;;;;;5028008;28;20434;-71
2024/01/15 01:19:25;;;;;;;34.63;21.10;;;0.70;99.90;;;;;;5026303;28;20943;-70
2024/01/15 01:21:52;;;;;;;30.00;19.60;;;0.70;99.90;;;;;;5025233;28;20522;-71
2024/01/15 01:24:18;;;;;;;30.23;19.75;;;0.70;99.90;;;;;;5028261;28;20462;-71
2024/01/15 01:26:46;;;;;;;29.33;19.40;;;0.70;99.90;;;;;;5028001;28;20494;-71
2024/01/15 01:29:14;;;;;;;29.17;20.73;;;0.70;99.90;;;;;;5025181;28;20432;-71
2024/01/15 01:31:44;;;;;;;30.83;20.10;;;0.70;99.90;;;;;;5025894;28;20435;-71
2024/01/15 01:34:11;;;;;;;31.80;20.70;;;0.70;99.90;;;;;;5025494;28;20520;-70
2024/01/15 01:36:37;;;;;;;29.30;19.70;;;0.60;99.90;;;;;;5026664;28;20442;-72
2024/01/15 01:39:05;;;;;;;31.05;19.30;;;0.70;99.90;;;;;;5027213;28;20438;-71
2024/01/15 01:41:32;;;;;;;30.27;20.00;;;0.70;99.90;;;;;;5029424;28;20435;-71
2024/01/15 01:43:58;;;;;;;32.90;20.67;;;0.70;99.90;;;;;;5028326;28;20438;-71
2024/01/15 01:46:29;;;;;;;31.35;19.85;;;0.70;99.90;;;;;;5027197;28;20418;-71
2024/01/15 01:48:56;;;;;;;29.48;20.08;;;0.70;99.90;;;;;;5026073;28;20434;-71
2024/01/15 01:51:25;;;;;;;28.05;19.67;;;0.70;99.90;;;;;;5027140;28;20431;-72
2024/01/15 01:53:52;;;;;;;30.27;20.20;;;0.70;99.90;;;;;;5024305;28;20849;-71
2024/01/15 01:56:19;;;;;;;30.45;20.17;;;0.70;99.90;;;;;;5030357;28;20432;-72
2024/01/15 01:58:47;;;;;;;31.33;20.88;;;0.70;99.90;;;;;;5027564;28;20436;-71
2024/01/15 02:01:16;;;;;;;30.77;21.02;;;0.70;99.90;;;;;;5029242;28;20959;-71
2024/01/15 02:03:44;;;;;;;34.25;20.85;;;0.70;99.90;;;;;;5028995;28;20514;-72
2024/01/15 02:06:11;;;;;;;33.85;21.27;;;0.80;99.90;;;;;;5025149;28;20439;-71
2024/01/15 02:08:38;;;;;;;30.27;19.90;;;0.80;99.90;;;;;;5025335;28;20533;-71
2024/01/15 02:11:05;;;;;;;36.50;21.05;;;0.80;99.90;;;;;;5028708;28;20438;-72
2024/01/15 02:13:32;;;;;;;27.00;18.63;;;0.80;99.90;;;;;;5025338;28;20503;-73
2024/01/15 02:15:58;;;;;;;36.42;20.67;;;0.80;99.90;;;;;;5028422;28;20431;-72
2024/01/15 02:18:25;;;;;;;32.45;19.98;;;0.90;99.90;;;;;;5025205;28;20442;-71
2024/01/15 02:20:53;;;;;;;28.13;20.37;;;0.90;99.90;;;;;;5028236;28;20424;-72
2024/01/15 02:23:21;;;;;;;27.40;19.27;;;0.90;99.90;;;;;;5023651;28;20511;-72
2024/01/15 02:25:48;;;;;;;27.50;18.42;;;0.90;99.90;;;;;;5026926;28;20437;-72
2024/01/15 02:28:16;;;;;;;27.45;19.85;;;0.90;99.90;;;;;;5029125;28;20423;-72
2024/01/15 02:30:44;;;;;;;29.83;20.40;;;0.90;99.90;;;;;;5024989;28;20430;-72
2024/01/15 02:33:12;;;;;;;29.42;19.80;;;0.90;99.90;;;;;;5025200;28;20438;-72
2024/01/15 02:35:38;;;;;;;27.48;19.52;;;0.90;99.90;;;;;;5022852;28;20435;-73
2024/01/15 02:38:05;;;;;;;30.25;19.42;;;0.90;99.90;;;;;;5025176;28;20442;-73
2024/01/15 02:40:34;;;;;;;29.20;19.27;;;1.00;99.90;;;;;;5025374;28;20435;-72
2024/01/15 02:43:01;;;;;;;26.55;18.05;;;0.90;99.90;;;;;;5025773;28;20470;-73
2024/01/15 02:45:28;;;;;;;27.40;18.98;;;0.90;99.90;;;;;;5026760;28;20929;-73
2024/01/15 02:47:55;;;;;;;26.05;18.60;;;1.00;99.90;;;;;;5027492;28;20437;-73
2024/01/15 02:50:21;;;;;;;26.95;18.63;;;1.00;99.90;;;;;;5027251;28;20735;-72
2024/01/15 02:52:48;;;;;;;28.38;19.20;;;1.00;99.90;;;;;;5032974;28;20450;-72
2024/01/15 02:55:15;;;;;;;28.70;19.90;;;1.00;99.90;;;;;;5030935;28;20446;-73
2024/01/15 02:57:43;;;;;;;27.70;18.63;;;1.00;99.90;;;;;;5031091;28;20442;-72
2024/01/15 03:00:11;;;;;;;23.35;17.58;;;1.00;99.90;;;;;;5031745;28;20809;-72
2024/01/15 03:02:40;;;;;;;26.67;17.92;;;1.00;99.90;;;;;;5028983;28;20809;-73
2024/01/15 03:05:07;;;;;;;26.83;19.20;;;1.00;99.90;;;;;;5030142;28;20437;-72
2024/01/15 03:07:34;;;;;;;24.42;17.98;;;1.00;99.90;;;;;;5030743;28;20418;-73
2024/01/15 03:10:01;;;;;;;24.88;17.80;;;1.00;99.90;;;;;;5028195;28;20466;-73
2024/01/15 03:12:28;;;;;;;26.38;17.35;;;1.00;99.90;;;;;;5029376;28;20434;-73
2024/01/15 03:14:56;;;;;;;25.60;17.95;;;1.00;99.90;;;;;;5028670;28;20822;-73
2024/01/15 03:17:23;;;;;;;25.95;17.23;;;1.00;99.90;;;;;;5028196;28;20429;-73
2024/01/15 03:19:50;;;;;;;25.77;17.63;;;1.00;99.90;;;;;;5028205;28;20437;-73
2024/01/15 03:22:17;;;;;;;21.83;16.67;;;1.00;99.90;;;;;;5030411;28;20466;-73
2024/01/15 03:24:44;;;;;;;22.95;16.90;;;1.10;99.90;;;;;;5029212;28;20433;-73
2024/01/15 03:27:11;;;;;;;23.40;17.38;;;1.10;99.90;;;;;;5028880;28;20441;-73
2024/01/15 03:29:37;;;;;;;21.65;16.90;;;1.10;99.90;;;;;;5030867;28;20431;-72
2024/01/15 03:32:06;;;;;;;24.17;16.77;;;1.10;99.90;;;;;;5029592;28;20921;-73
2024/01/15 03:34:33;;;;;;;18.97;16.10;;;1.10;99.90;;;;;;5028932;28;20435;-73
2024/01/15 03:37:00;;;;;;;20.73;16.40;;;1.10;99.90;;;;;;5030196;28;20608;-73
2024/01/15 03:39:26;;;;;;;19.90;16.15;;;1.10;99.90;;;;;;5030029;28;20441;-72
2024/01/15 03:41:53;;;;;;;20.00;15.60;;;1.10;99.90;;;;;;5027812;28;20514;-73
2024/01/15 03:44:20;;;;;;;21.00;16.98;;;1.10;99.90;;;;;;5029344;28;20948;-73
2024/01/15 03:46:47;;;;;;;21.30;17.10;;;1.10;99.90;;;;;;5028202;28;20450;-73
2024/01/15 03:49:15;;;;;;;22.75;17.13;;;1.10;99.90;;;;;;5028644;28;20512;-73
2024/01/15 03:51:41;;;;;;;22.00;17.58;;;1.10;99.90;;;;;;5029541;28;20438;-73
2024/01/15 03:54:08;;;;;;;22.13;17.17;;;1.20;99.90;;;;;;5031490;28;20801;-73
2024/01/15 03:56:35;;;;;;;23.30;17.05;;;1.10;99.90;;;;;;5032401;28;20457;-73
2024/01/15 03:59:02;;;;;;;22.42;16.80;;;1.20;99.90;;;;;;5027457;28;20458;-73
2024/01/15 04:01:29;;;;;;;23.90;17.87;;;1.20;99.90;;;;;;5027121;28;20932;-73
2024/01/15 04:03:56;;;;;;;21.33;16.85;;;1.20;99.90;;;;;;5030113;28;20538;-73
2024/01/15 04:06:24;;;;;;;22.83;17.50;;;1.20;99.90;;;;;;5029324;28;20439;-73
2024/01/15 04:08:51;;;;;;;22.52;17.70;;;1.20;99.90;;;;;;5022745;28;20449;-73
2024/01/15 04:11:17;;;;;;;23.98;18.10;;;1.20;99.90;;;;;;5027034;28;20584;-73
2024/01/15 04:13:44;;;;;;;24.55;18.02;;;1.20;99.90;;;;;;5023016;28;20442;-73
2024/01/15 04:16:11;;;;;;;23.87;18.07;;;1.20;99.90;;;;;;5028336;28;20771;-73
2024/01/15 04:18:38;;;;;;;24.73;17.55;;;1.20;99.90;;;;;;5026984;28;20442;-73
2024/01/15 04:21:05;;;;;;;24.70;18.40;;;1.10;99.90;;;;;;5028446;28;20434;-73
2024/01/15 04:23:34;;;;;;;23.90;18.02;;;1.10;99.90;;;;;;5025819;28;20524;-73
2024/01/15 04:26:00;;;;;;;23.65;17.60;;;1.10;99.90;;;;;;5032195;28;20813;-73
2024/01/15 04:28:27;;;;;;;25.85;18.15;;;1.10;99.90;;;;;;5028297;28;20446;-73
2024/01/15 04:30:54;;;;;;;23.08;17.42;;;1.10;99.90;;;;;;5026799;28;20439;-72
2024/01/15 04:33:20;;;;;;;23.52;18.08;;;1.20;99.90;;;;;;5028287;28;20462;-72
2024/01/15 04:35:47;;;;;;;19.90;15.50;;;1.20;99.90;;;;;;5027688;28;20442;-73
2024/01/15 04:38:14;;;;;;;24.48;16.58;;;1.20;99.90;;;;;;5027941;28;20462;-72
2024/01/15 04:40:42;;;;;;;19.90;15.80;;;1.20;99.90;;;;;;5027662;28;20441;-72
2024/01/15 04:43:09;;;;;;;18.85;14.85;;;1.20;99.90;;;;;;5028926;28;20430;-73
2024/01/15 04:45:35;;;;;;;20.20;14.65;;;1.20;99.90;;;;;;5028228;28;20437;-73
2024/01/15 04:48:03;;;;;;;17.75;14.00;;;1.30;99.90;;;;;;5028234;28;20434;-73
2024/01/15 04:50:29;;;;;;;19.90;14.40;;;1.30;99.90;;;;;;5026323;28;20437;-73
2024/01/15 04:52:56;;;;;;;19.90;14.23;;;1.30;99.90;;;;;;5027633;28;20439;-72
2024/01/15 04:55:23;;;;;;;18.98;13.68;;;1.30;99.90;;;;;;5027881;28;20449;-73
2024/01/15 04:57:51;;;;;;;17.45;13.38;;;1.30;99.90;;;;;;5027169;28;20435;-73
2024/01/15 05:00:18;;;;;;;16.05;13.40;;;1.40;99.90;;;;;;5026778;28;20427;-72
2024/01/15 05:02:45;;;;;;;17.70;12.75;;;1.40;99.90;;;;;;5027643;28;20435;-72
2024/01/15 05:05:11;;;;;;;18.13;13.70;;;1.40;99.90;;;;;;5025916;28;20435;-73
2024/01/15 05:07:38;;;;;;;16.35;13.00;;;1.50;99.90;;;;;;5027318;28;20438;-72
2024/01/15 05:10:07;;;;;;;16.90;13.05;;;1.50;99.90;;;;;;5024797;28;20435;-72
2024/01/15 05:12:34;;;;;;;17.63;13.63;;;1.50;99.90;;;;;;5019490;28;20427;-72
2024/01/15 05:15:02;;;;;;;16.88;13.70;;;1.50;99.90;;;;;;5028110;28;20442;-72
2024/01/15 05:17:28;;;;;;;17.50;14.20;;;1.50;99.90;;;;;;5027136;28;20893;-73
2024/01/15 05:19:55;;;;;;;16.20;12.75;;;1.50;99.90;;;;;;5028965;28;20728;-74
2024/01/15 05:22:24;;;;;;;17.20;13.30;;;1.50;99.90;;;;;;5027058;28;20439;-73
2024/01/15 05:24:51;;;;;;;16.17;13.55;;;1.50;99.90;;;;;;5026210;28;20443;-73
2024/01/15 05:27:18;;;;;;;17.33;14.05;;;1.50;99.90;;;;;;5026496;28;20426;-73
2024/01/15 05:29:44;;;;;;;15.70;13.10;;;1.50;99.90;;;;;;5018125;28;20865;-73
2024/01/15 05:32:12;;;;;;;14.70;11.88;;;1.50;99.90;;;;;;5026850;28;20426;-73
2024/01/15 05:34:39;;;;;;;19.20;13.38;;;1.50;99.90;;;;;;5026147;28;20802;-73
2024/01/15 05:37:06;;;;;;;17.83;13.30;;;1.50;99.90;;;;;;5027351;28;20442;-73
2024/01/15 05:39:32;;;;;;;16.65;13.15;;;1.60;99.90;;;;;;5024879;28;20426;-72
2024/01/15 05:41:59;;;;;;;15.43;12.70;;;1.60;99.90;;;;;;5027255;28;20929;-73
2024/01/15 05:44:26;;;;;;;15.75;11.88;;;1.60;99.90;;;;;;5024442;28;20439;-74
2024/01/15 05:46:54;;;;;;;16.98;12.60;;;1.60;99.90;;;;;;5027378;28;20411;-74
2024/01/15 05:49:22;;;;;;;14.25;11.75;;;1.60;99.90;;;;;;5025776;28;20442;-73
2024/01/15 05:51:48;;;;;;;13.10;10.70;;;1.60;99.90;;;;;;5026257;28;20443;-73
2024/01/15 05:54:15;;;;;;;14.70;10.55;;;1.60;99.90;;;;;;5025568;28;20925;-72
2024/01/15 05:56:42;;;;;;;15.18;11.80;;;1.60;99.90;;;;;;5025337;28;20431;-74
2024/01/15 05:59:08;;;;;;;15.73;11.93;;;1.50;99.90;;;;;;5023691;28;20434;-73
2024/01/15 06:01:35;;;;;;;13.98;11.07;;;1.50;99.90;;;;;;5021686;28;20438;-73
2024/01/15 06:04:02;;;;;;;13.80;11.30;;;1.50;99.90;;;;;;5025039;28;20449;-73
2024/01/15 06:06:30;;;;;;;15.90;11.35;;;1.50;99.90;;;;;;5024572;28;20802;-74
2024/01/15 06:09:04;;;;;;;12.73;10.93;;;1.50;99.90;;;;;;5024310;28;21089;-75
2024/01/15 06:11:31;;;;;;;17.10;11.70;;;1.50;99.90;;;;;;5025215;28;20570;-74
2024/01/15 06:13:58;;;;;;;13.18;10.90;;;1.60;99.90;;;;;;5022147;28;20440;-74
2024/01/15 06:16:25;;;;;;;12.35;10.45;;;1.60;99.90;;;;;;5025500;28;20538;-75
2024/01/15 06:18:52;;;;;;;16.95;12.40;;;1.60;99.90;;;;;;5025775;28;20434;-74
2024/01/15 06:21:18;;;;;;;15.48;11.82;;;1.60;99.90;;;;;;5026940;28;20454;-75
2024/01/15 06:23:47;;;;;;;12.93;11.55;;;1.50;99.90;;;;;;5025796;28;20436;-74
2024/01/15 06:26:13;;;;;;;15.00;12.45;;;1.60;99.90;;;;;;5027630;28;20426;-75
2024/01/15 06:28:40;;;;;;;16.50;13.23;;;1.50;99.90;;;;;;5025642;28;20427;-74
2024/01/15 06:31:07;;;;;;;14.65;12.15;;;1.60;99.90;;;;;;5025219;28;20438;-75
2024/01/15 06:33:34;;;;;;;17.23;12.13;;;1.60;99.90;;;;;;5018622;28;20411;-75
2024/01/15 06:36:01;;;;;;;18.30;13.35;;;1.60;99.90;;;;;;5025786;28;20446;-73
2024/01/15 06:38:28;;;;;;;13.32;11.93;;;1.60;99.90;;;;;;5026275;28;20431;-74
2024/01/15 06:40:56;;;;;;;14.93;12.50;;;1.60;99.90;;;;;;5025089;28;20423;-74
2024/01/15 06:43:23;;;;;;;17.53;12.60;;;1.60;99.90;;;;;;5026236;28;20968;-74
2024/01/15 06:45:49;;;;;;;15.25;12.88;;;1.60;99.90;;;;;;5024194;28;20435;-73
2024/01/15 06:48:17;;;;;;;16.17;12.40;;;1.60;99.90;;;;;;5024785;28;20438;-74
2024/01/15 06:50:43;;;;;;;15.63;12.35;;;1.60;99.90;;;;;;5024119;28;20492;-74
2024/01/15 06:53:10;;;;;;;16.13;13.05;;;1.60;99.90;;;;;;5024306;28;20442;-73
2024/01/15 06:55:37;;;;;;;18.13;13.88;;;1.60;99.90;;;;;;5024876;28;20803;-73
2024/01/15 06:58:05;;;;;;;18.00;13.85;;;1.60;99.90;;;;;;5025168;28;20446;-74
2024/01/15 07:00:32;;;;;;;16.17;13.77;;;1.60;99.90;;;;;;5021592;28;20438;-74
2024/01/15 07:02:58;;;;;;;18.90;13.70;;;1.60;99.90;;;;;;5025960;28;20435;-74
2024/01/15 07:05:25;;;;;;;18.83;14.30;;;1.60;99.90;;;;;;5025932;28;20448;-74
2024/01/15 07:07:52;;;;;;;17.40;14.70;;;1.50;99.90;;;;;;5026380;28;20423;-73
2024/01/15 07:10:19;;;;;;;16.20;14.50;;;1.50;99.90;;;;;;5025482;28;20414;-74
2024/01/15 07:12:46;;;;;;;16.23;13.25;;;1.50;99.90;;;;;;5023341;28;20443;-74
2024/01/15 07:15:14;;;;;;;16.90;14.02;;;1.50;99.90;;;;;;5024836;28;20437;-74
2024/01/15 07:17:41;;;;;;;15.70;12.88;;;1.50;99.90;;;;;;5028506;28;20488;-74
2024/01/15 07:20:09;;;;;;;15.88;12.40;;;1.50;99.90;;;;;;5024263;28;20427;-74
2024/01/15 07:22:37;;;;;;;15.00;13.00;;;1.50;99.90;;;;;;5026094;28;20580;-73
2024/01/15 07:25:04;;;;;;;15.13;12.95;;;1.50;99.90;;;;;;5025358;28;20431;-76
2024/01/15 07:27:31;;;;;;;15.18;12.50;;;1.50;99.90;;;;;;5025849;28;20431;-73
2024/01/15 07:29:58;;;;;;;16.60;12.73;;;1.50;99.90;;;;;;5025355;28;20442;-73
2024/01/15 07:32:26;;;;;;;16.08;12.90;;;1.60;99.90;;;;;;5035405;22;20759;-65
2024/01/15 07:34:52;;;;;;;14.73;12.40;;;1.60;99.90;;;;;;5021673;28;20944;-62
2024/01/15 07:37:19;;;;;;;14.75;12.52;;;1.60;99.90;;;;;;5025572;28;20418;-63
2024/01/15 07:39:46;;;;;;;15.20;12.33;;;1.60;99.90;;;;;;5023758;28;20913;-65
2024/01/15 07:42:13;;;;;;;16.80;12.23;;;1.60;99.90;;;;;;5022836;28;20488;-66
2024/01/15 07:44:39;;;;;;;15.45;12.20;;;1.60;99.90;;;;;;5025970;28;20831;-66
2024/01/15 07:47:06;;;;;;;14.02;12.40;;;1.60;99.90;;;;;;5025582;28;20439;-65
2024/01/15 07:49:34;;;;;;;17.00;12.73;;;1.70;99.90;;;;;;5023040;28;20453;-65
2024/01/15 07:52:01;;;;;;;14.13;11.60;;;1.60;99.90;;;;;;5024853;28;20909;-63
2024/01/15 07:54:28;;;;;;;14.38;12.88;;;1.70;99.90;;;;;;5024493;28;20553;-64
2024/01/15 07:56:57;;;;;;;16.95;13.10;;;1.70;99.90;;;;;;5026636;28;20438;-65
2024/01/15 07:59:24;;;;;;;17.23;13.38;;;1.80;99.90;;;;;;5022532;28;20526;-63
2024/01/15 08:01:51;;;;;;;15.20;13.17;;;1.80;99.90;;;;;;5023358;28;20532;-65
2024/01/15 08:04:18;;;;;;;15.63;13.27;;;1.80;99.90;;;;;;5025723;28;20419;-65
2024/01/15 08:06:46;;;;;;;16.90;12.80;;;1.80;99.90;;;;;;5027273;28;20867;-63
2024/01/15 08:09:13;;;;;;;15.23;13.60;;;1.80;99.90;;;;;;5025996;28;20448;-63
2024/01/15 08:11:41;;;;;;;17.63;14.25;;;1.80;99.90;;;;;;5025540;28;20916;-63
2024/01/15 08:14:08;;;;;;;16.77;13.85;;;1.80;99.90;;;;;;5025536;28;20505;-63
2024/01/15 08:16:35;;;;;;;16.02;14.43;;;1.90;99.90;;;;;;5029425;28;20452;-64
2024/01/15 08:19:01;;;;;;;16.92;14.40;;;1.90;99.90;;;;;;5028781;28;20442;-62
2024/01/15 08:21:29;;;;;;;17.20;14.47;;;1.90;99.90;;;;;;5026476;28;20506;-66
2024/01/15 08:23:57;;;;;;;16.77;14.80;;;2.00;99.90;;;;;;5024539;28;21001;-63
2024/01/15 08:26:24;;;;;;;20.60;14.73;;;2.00;99.90;;;;;;5044730;28;20449;-63
2024/01/15 08:28:51;;;;;;;16.45;14.20;;;2.00;99.90;;;;;;5044423;28;20418;-62
2024/01/15 08:31:18;;;;;;;15.93;13.87;;;2.10;99.90;;;;;;5030872;28;20473;-64
2024/01/15 08:33:45;;;;;;;16.63;14.63;;;2.10;99.90;;;;;;5023688;28;20786;-63
2024/01/15 08:36:11;;;;;;;16.75;14.23;;;2.10;99.90;;;;;;5024117;28;20441;-63
2024/01/15 08:38:38;;;;;;;18.20;13.80;;;2.00;99.90;;;;;;5023141;28;20553;-66
2024/01/15 08:41:08;;;;;;;18.13;14.40;;;2.00;99.90;;;;;;5023279;28;21348;-63
2024/01/15 08:43:34;;;;;;;17.73;14.77;;;2.00;99.90;;;;;;5025356;28;20438;-63
2024/01/15 08:46:01;;;;;;;18.85;15.55;;;1.90;99.90;;;;;;5022781;28;20917;-63
2024/01/15 08:48:28;;;;;;;18.35;15.18;;;1.90;99.90;;;;;;5023843;28;20435;-63
2024/01/15 08:50:56;;;;;;;19.30;14.68;;;1.90;99.90;;;;;;5025848;28;20431;-63
2024/01/15 08:53:23;;;;;;;17.30;14.50;;;1.90;99.90;;;;;;5025526;28;20900;-63
2024/01/15 08:55:50;;;;;;;18.20;15.00;;;1.90;99.90;;;;;;5025397;28;20461;-63
2024/01/15 08:58:18;;;;;;;18.00;15.10;;;1.90;99.90;;;;;;5024549;28;20766;-63
2024/01/15 09:00:45;;;;;;;19.42;16.27;;;1.80;99.90;;;;;;5026832;28;20940;-63
2024/01/15 09:03:11;;;;;;;17.20;15.05;;;1.80;99.90;;;;;;5022303;28;20430;-63
2024/01/15 09:05:38;;;;;;;17.08;14.60;;;1.80;99.90;;;;;;5016458;28;20430;-63
2024/01/15 09:08:05;;;;;;;15.88;14.18;;;1.80;99.90;;;;;;5022931;28;20864;-65
2024/01/15 09:10:32;;;;;;;16.50;14.40;;;1.80;99.90;;;;;;5024208;28;20805;-62
2024/01/15 09:13:00;;;;;;;17.00;14.20;;;1.80;99.90;;;;;;5023851;28;20941;-64
2024/01/15 09:15:28;;;;;;;16.30;13.97;;;1.80;99.90;;;;;;5032031;28;20492;-65
2024/01/15 09:17:57;;;;;;;14.50;12.90;;;1.80;99.90;;;;;;5023757;28;20538;-64
2024/01/15 09:20:25;;;;;;;15.38;13.05;;;1.80;99.90;;;;;;5020292;28;20522;-65
2024/01/15 09:22:52;;;;;;;14.70;11.93;;;1.70;99.90;;;;;;5019995;28;20419;-64
2024/01/15 09:25:20;;;;;;;18.15;13.40;;;1.70;99.90;;;;;;5026517;28;20494;-64
2024/01/15 09:27:48;;;;;;;15.80;12.63;;;1.70;99.90;;;;;;5023181;28;20431;-64
2024/01/15 09:30:15;;;;;;;19.40;12.95;;;1.60;99.90;;;;;;5022856;28;20525;-64
2024/01/15 09:32:43;;;;;;;13.70;11.82;;;1.50;99.90;;;;;;5019636;28;20768;-64
2024/01/15 09:35:10;;;;;;;12.15;10.85;;;1.50;99.90;;;;;;5024122;28;20498;-65
2024/01/15 09:37:37;;;;;;;13.50;10.90;;;1.50;99.90;;;;;;5021397;28;20431;-64
2024/01/15 09:40:06;;;;;;;12.77;11.20;;;1.40;99.90;;;;;;5023470;28;20504;-65
2024/01/15 09:42:33;;;;;;;13.60;11.38;;;1.30;99.90;;;;;;5023245;28;20580;-64
2024/01/15 09:45:00;;;;;;;13.43;11.57;;;1.30;99.90;;;;;;5023979;28;20474;-64
2024/01/15 09:47:27;;;;;;;12.57;11.23;;;1.30;99.90;;;;;;5021511;28;20542;-64
2024/01/15 09:49:57;;;;;;;12.95;10.70;;;1.30;99.90;;;;;;5023349;28;20443;-65
2024/01/15 09:52:26;;;;;;;14.10;11.10;;;1.20;99.90;;;;;;5023992;28;20512;-64
2024/01/15 09:54:53;;;;;;;13.35;10.90;;;1.20;99.90;;;;;;5025343;28;20630;-64
2024/01/15 09:57:20;;;;;;;12.55;9.90;;;1.20;99.90;;;;;;5022380;28;20526;-65
2024/01/15 09:59:49;;;;;;;11.85;9.75;;;1.20;99.90;;;;;;5023707;28;20457;-64
2024/01/15 10:02:18;;;;;;;9.80;8.80;;;1.20;99.90;;;;;;5021561;28;20492;-65
2024/01/15 10:04:45;;;;;;;11.77;9.05;;;1.10;99.90;;;;;;5022539;28;20825;-64
2024/01/15 10:07:16;;;;;;;10.80;8.88;;;1.00;99.90;;;;;;5022738;28;20405;-65
2024/01/15 10:09:43;;;;;;;10.20;8.70;;;1.10;99.90;;;;;;5018634;28;20423;-64
2024/01/15 10:12:11;;;;;;;9.70;8.70;;;1.10;99.90;;;;;;5023011;28;20445;-64
2024/01/15 10:14:37;;;;;;;8.85;7.97;;;1.20;99.90;;;;;;5020283;28;20664;-64
2024/01/15 10:17:14;;;;;;;9.10;8.20;;;1.30;99.90;;;;;;5023216;28;20438;-65
2024/01/15 10:19:41;;;;;;;8.50;7.70;;;1.30;99.90;;;;;;5021638;28;20740;-65
2024/01/15 10:22:09;;;;;;;10.23;8.02;;;1.40;99.90;;;;;;5022867;28;20936;-65
2024/01/15 10:24:38;;;;;;;7.45;6.72;;;1.30;99.90;;;;;;5024193;28;20869;-65
2024/01/15 10:27:09;;;;;;;7.88;7.07;;;1.30;99.90;;;;;;5022788;28;20445;-64
2024/01/15 10:29:37;;;;;;;7.97;7.10;;;1.20;99.90;;;;;;5021528;28;20925;-65
2024/01/15 10:32:07;;;;;;;7.50;6.70;;;1.20;99.90;;;;;;5021028;28;20489;-64
2024/01/15 10:34:33;;;;;;;8.00;7.20;;;1.20;99.90;;;;;;5019989;28;20435;-64
2024/01/15 10:37:00;;;;;;;8.00;7.20;;;1.20;99.90;;;;;;5019432;28;20878;-64
2024/01/15 10:39:27;;;;;;;8.43;7.13;;;1.30;99.90;;;;;;5020568;28;20427;-64
2024/01/15 10:41:55;;;;;;;7.90;7.15;;;1.30;99.90;;;;;;5021079;28;20426;-64
2024/01/15 10:44:22;;;;;;;8.33;7.30;;;1.40;99.90;;;;;;5020108;28;21120;-64
2024/01/15 10:46:48;;;;;;;8.73;7.85;;;1.40;99.90;;;;;;5014881;28;20440;-64
2024/01/15 10:49:16;;;;;;;7.90;7.10;;;1.40;99.90;;;;;;5014593;28;20552;-64
2024/01/15 10:51:43;;;;;;;8.07;7.28;;;1.40;99.90;;;;;;5016660;28;20890;-65
2024/01/15 10:54:11;;;;;;;7.70;6.90;;;1.30;99.90;;;;;;5028374;28;20431;-64
2024/01/15 10:56:38;;;;;;;6.85;6.15;;;1.20;99.90;;;;;;5041789;28;20418;-63
2024/01/15 10:59:07;;;;;;;6.60;6.00;;;1.00;99.90;;;;;;5029237;28;20434;-65
2024/01/15 11:01:35;;;;;;;7.90;6.10;;;1.00;99.90;;;;;;5021128;28;20495;-64
2024/01/15 11:04:01;;;;;;;6.40;5.63;;;0.90;99.90;;;;;;5021324;28;20743;-64
2024/01/15 11:06:41;;;;;;;6.47;5.78;;;1.00;99.90;;;;;;5021081;28;20422;-64
2024/01/15 11:09:08;;;;;;;6.78;6.07;;;1.00;99.90;;;;;;5023860;28;20451;-64
2024/01/15 11:11:37;;;;;;;5.53;5.03;;;1.10;99.90;;;;;;5025762;28;20538;-65
2024/01/15 11:14:03;;;;;;;6.10;5.50;;;1.20;99.90;;;;;;5021915;28;20934;-64
2024/01/15 11:16:56;;;;;;;7.20;5.50;;;1.30;99.90;;;;;;5023770;28;20427;-64
2024/01/15 11:19:23;;;;;;;6.68;5.50;;;1.30;99.90;;;;;;5021609;28;20867;-65
2024/01/15 11:21:49;;;;;;;5.97;5.37;;;1.30;99.90;;;;;;5024983;28;20951;-65
2024/01/15 11:24:34;;;;;;;5.50;4.90;;;1.30;99.90;;;;;;5025438;28;20506;-64
2024/01/15 11:27:01;;;;;;;5.30;4.22;;;1.40;99.90;;;;;;5021118;28;20534;-64
2024/01/15 11:29:34;;;;;;;5.35;4.85;;;1.50;99.90;;;;;;5027942;28;20453;-65
2024/01/15 11:32:04;;;;;;;5.40;4.55;;;1.50;99.90;;;;;;5027526;28;21144;-64
2024/01/15 11:34:58;;;;;;;5.30;4.80;;;1.50;99.90;;;;;;5023789;28;20801;-63
2024/01/15 11:37:27;;;;;;;5.28;4.78;;;1.60;99.90;;;;;;5021602;28;20826;-65
2024/01/15 11:39:55;;;;;;;5.18;4.78;;;1.80;99.90;;;;;;5024832;28;20437;-64
2024/01/15 11:42:22;;;;;;;5.38;4.90;;;1.80;99.90;;;;;;5024702;28;20435;-64
2024/01/15 11:44:50;;;;;;;5.47;4.97;;;1.70;99.90;;;;;;5033959;28;20434;-65
2024/01/15 11:47:39;;;;;;;6.50;5.90;;;1.70;99.90;;;;;;5027091;28;20438;-64
2024/01/15 11:50:08;;;;;;;5.80;5.20;;;1.70;99.90;;;;;;5008675;28;20437;-65
2024/01/15 11:52:36;;;;;;;6.30;5.80;;;1.60;99.90;;;;;;5025197;28;20438;-64
2024/01/15 11:55:15;;;;;;;7.27;6.10;;;1.70;99.90;;;;;;5023579;28;20459;-64
2024/01/15 11:57:45;;;;;;;7.40;6.70;;;1.70;99.90;;;;;;5025566;28;20454;-63
2024/01/15 12:00:13;;;;;;;8.05;6.82;;;1.70;99.90;;;;;;5027309;28;20453;-65
2024/01/15 12:02:42;;;;;;;7.88;7.18;;;1.70;99.90;;;;;;5026879;28;20790;-64
2024/01/15 12:05:10;;;;;;;8.48;7.65;;;1.70;99.90;;;;;;5024771;28;20506;-64
2024/01/15 12:07:37;;;;;;;9.82;8.40;;;1.60;99.90;;;;;;5024320;28;20477;-64
2024/01/15 12:10:09;;;;;;;8.83;7.93;;;1.60;99.90;;;;;;5025588;28;20542;-64
2024/01/15 12:12:45;;;;;;;9.65;8.23;;;1.60;99.90;;;;;;5027524;28;20937;-64
2024/01/15 12:15:12;;;;;;;8.07;7.38;;;1.60;99.90;;;;;;5027574;28;20804;-64
2024/01/15 12:17:39;;;;;;;9.27;8.40;;;1.60;99.90;;;;;;5025849;28;20463;-64
2024/01/15 12:20:09;;;;;;;9.05;8.15;;;1.60;99.90;;;;;;5023885;28;20445;-64
2024/01/15 12:22:35;;;;;;;10.40;9.00;;;1.80;99.90;;;;;;5026196;28;20450;-64
2024/01/15 12:25:02;;;;;;;9.80;8.48;;;2.70;99.90;;;;;;5024930;28;20442;-64
2024/01/15 12:27:29;;;;;;;8.60;7.80;;;3.40;99.90;;;;;;5026244;28;20596;-64
2024/01/15 12:29:56;;;;;;;7.80;7.00;;;4.30;99.90;;;;;;5024779;28;20430;-64
2024/01/15 12:32:25;;;;;;;6.78;6.07;;;5.00;99.90;;;;;;5024626;28;20435;-64
2024/01/15 12:34:52;;;;;;;8.17;5.67;;;5.20;99.90;;;;;;5019595;28;20665;-64
2024/01/15 12:37:20;;;;;;;7.55;5.60;;;4.90;99.90;;;;;;5025889;28;20431;-65
2024/01/15 12:39:48;;;;;;;5.40;4.90;;;4.50;99.90;;;;;;5022007;28;20438;-64
2024/01/15 12:42:15;;;;;;;6.70;5.10;;;4.10;99.90;;;;;;5022317;28;20858;-64